createdAt,value
2022-10-17T00:01:05.249Z,18.10
2022-10-17T00:03:33.906Z,18.10
2022-10-17T00:06:10.039Z,18.10
2022-10-17T00:08:40.663Z,18.00
2022-10-17T00:11:20.171Z,18.20
2022-10-17T00:13:49.745Z,18.00
2022-10-17T00:16:28.772Z,18.20
2022-10-17T00:18:56.671Z,18.00
2022-10-17T00:21:25.035Z,18.10
2022-10-17T00:23:59.257Z,17.90
2022-10-17T00:26:28.484Z,17.90
2022-10-17T00:28:56.339Z,18.10
2022-10-17T00:31:24.768Z,17.90
2022-10-17T00:33:52.815Z,17.90
2022-10-17T00:36:23.419Z,17.80
2022-10-17T00:38:55.285Z,18.00
2022-10-17T00:41:26.343Z,18.10
2022-10-17T00:44:00.482Z,18.00
2022-10-17T00:46:37.174Z,17.80
2022-10-17T00:49:11.377Z,17.70
2022-10-17T00:51:42.939Z,17.70
2022-10-17T00:54:12.477Z,17.70
2022-10-17T00:56:40.524Z,17.70
2022-10-17T00:59:11.274Z,17.70
2022-10-17T01:01:41.561Z,17.70
2022-10-17T01:04:10.171Z,17.60
2022-10-17T01:06:40.109Z,17.60
2022-10-17T01:09:07.477Z,17.60
2022-10-17T01:12:17.183Z,17.80
2022-10-17T01:15:24.457Z,17.60
2022-10-17T01:18:27.717Z,17.60
2022-10-17T01:21:24.679Z,17.50
2022-10-17T01:24:34.397Z,17.50
2022-10-17T01:27:16.982Z,17.50
2022-10-17T01:30:14.697Z,17.40
2022-10-17T01:33:00.025Z,17.40
2022-10-17T01:35:40.697Z,17.40
2022-10-17T01:38:31.137Z,17.30
2022-10-17T01:41:27.608Z,17.30
2022-10-17T01:44:10.310Z,17.30
2022-10-17T01:46:50.482Z,17.30
2022-10-17T01:49:24.566Z,17.20
2022-10-17T01:52:02.653Z,17.20
2022-10-17T01:54:40.675Z,17.40
2022-10-17T01:57:15.461Z,17.20
2022-10-17T01:59:46.215Z,17.20
2022-10-17T02:02:15.717Z,17.40
2022-10-17T02:04:43.601Z,17.20
2022-10-17T02:07:12.579Z,17.10
2022-10-17T02:09:40.094Z,17.10
2022-10-17T02:12:36.686Z,17.10
2022-10-17T02:15:51.319Z,17.10
2022-10-17T02:18:57.262Z,17.10
2022-10-17T02:21:40.129Z,17.00
2022-10-17T02:24:15.311Z,17.00
2022-10-17T02:27:10.041Z,17.00
2022-10-17T02:29:52.747Z,17.00
2022-10-17T02:32:40.111Z,17.10
2022-10-17T02:35:10.140Z,16.90
2022-10-17T02:37:38.516Z,16.80
2022-10-17T02:40:09.164Z,17.10
2022-10-17T02:42:45.001Z,16.90
2022-10-17T02:45:14.622Z,16.90
2022-10-17T02:47:55.963Z,16.90
2022-10-17T02:50:57.024Z,16.90
2022-10-17T02:53:40.165Z,16.80
2022-10-17T02:56:16.475Z,16.90
2022-10-17T02:58:50.580Z,16.80
2022-10-17T03:01:19.708Z,17.00
2022-10-17T03:03:47.219Z,16.80
2022-10-17T03:06:14.689Z,16.80
2022-10-17T03:08:42.372Z,16.80
2022-10-17T03:11:09.724Z,16.80
2022-10-17T03:13:39.729Z,16.80
2022-10-17T03:16:07.801Z,16.70
2022-10-17T03:18:35.769Z,16.70
2022-10-17T03:21:04.258Z,16.70
2022-10-17T03:23:32.254Z,16.70
2022-10-17T03:26:04.901Z,16.70
2022-10-17T03:28:33.870Z,16.70
2022-10-17T03:31:08.126Z,16.60
2022-10-17T03:33:37.814Z,16.60
2022-10-17T03:36:09.885Z,16.80
2022-10-17T03:38:38.023Z,16.60
2022-10-17T03:41:06.259Z,16.80
2022-10-17T03:43:33.879Z,16.50
2022-10-17T03:46:02.197Z,16.50
2022-10-17T03:48:31.750Z,16.50
2022-10-17T03:51:06.043Z,16.50
2022-10-17T03:53:37.151Z,16.40
2022-10-17T03:56:17.129Z,16.40
2022-10-17T03:58:47.266Z,16.40
2022-10-17T04:01:18.224Z,16.60
2022-10-17T04:03:54.730Z,16.40
2022-10-17T04:06:22.720Z,16.60
2022-10-17T04:08:50.545Z,16.40
2022-10-17T04:11:33.507Z,16.40
2022-10-17T04:14:02.507Z,16.40
2022-10-17T04:16:30.568Z,16.50
2022-10-17T04:19:01.756Z,16.30
2022-10-17T04:21:34.351Z,16.30
2022-10-17T04:24:06.340Z,16.30
2022-10-17T04:26:45.717Z,16.70
2022-10-17T04:29:14.105Z,16.30
2022-10-17T04:31:43.629Z,16.30
2022-10-17T04:34:18.243Z,16.30
2022-10-17T04:36:47.149Z,16.50
2022-10-17T04:39:15.245Z,16.30
2022-10-17T04:41:42.790Z,16.50
2022-10-17T04:44:11.265Z,16.20
2022-10-17T04:46:42.524Z,16.30
2022-10-17T04:49:09.841Z,16.20
2022-10-17T04:51:39.176Z,16.20
2022-10-17T04:54:16.617Z,16.20
2022-10-17T04:56:48.599Z,16.30
2022-10-17T04:59:16.051Z,16.50
2022-10-17T05:01:45.422Z,16.20
2022-10-17T05:04:14.378Z,16.20
2022-10-17T05:06:41.921Z,16.40
2022-10-17T05:09:30.181Z,16.40
2022-10-17T05:11:58.074Z,16.20
2022-10-17T05:14:27.052Z,16.20
2022-10-17T05:16:54.330Z,16.10
2022-10-17T05:19:21.679Z,16.10
2022-10-17T05:21:51.889Z,16.10
2022-10-17T05:24:19.222Z,16.10
2022-10-17T05:26:46.654Z,16.10
2022-10-17T05:29:14.495Z,16.10
2022-10-17T05:31:46.766Z,16.30
2022-10-17T05:34:14.164Z,16.10
2022-10-17T05:36:42.879Z,16.10
2022-10-17T05:39:14.759Z,16.10
2022-10-17T05:41:42.625Z,16.30
2022-10-17T05:44:10.046Z,16.30
2022-10-17T05:46:44.256Z,16.00
2022-10-17T05:49:25.240Z,16.00
2022-10-17T05:52:00.142Z,16.00
2022-10-17T05:54:27.745Z,16.20
2022-10-17T05:56:56.508Z,16.00
2022-10-17T05:59:28.282Z,16.00
2022-10-17T06:02:13.535Z,16.00
2022-10-17T06:04:45.527Z,16.00
2022-10-17T06:07:14.503Z,15.90
2022-10-17T06:12:11.790Z,15.90
2022-10-17T06:14:39.322Z,15.90
2022-10-17T06:17:10.942Z,16.10
2022-10-17T06:19:41.549Z,16.10
2022-10-17T06:22:09.063Z,15.90
2022-10-17T06:24:36.995Z,16.00
2022-10-17T06:27:10.871Z,16.20
2022-10-17T06:29:40.193Z,16.00
2022-10-17T06:32:09.926Z,16.00
2022-10-17T06:34:41.010Z,16.00
2022-10-17T06:37:08.481Z,16.20
2022-10-17T06:39:37.197Z,16.20
2022-10-17T06:42:12.991Z,16.00
2022-10-17T06:44:47.662Z,16.00
2022-10-17T06:47:35.078Z,16.10
2022-10-17T06:50:10.996Z,16.10
2022-10-17T06:52:46.283Z,16.10
2022-10-17T06:55:54.040Z,16.10
2022-10-17T06:58:42.125Z,16.10
2022-10-17T07:01:23.431Z,16.20
2022-10-17T07:03:54.950Z,16.20
2022-10-17T07:06:26.674Z,16.20
2022-10-17T07:08:56.564Z,16.20
2022-10-17T07:11:24.160Z,16.40
2022-10-17T07:13:52.995Z,16.40
2022-10-17T07:16:21.962Z,16.30
2022-10-17T07:18:55.951Z,16.30
2022-10-17T07:21:23.723Z,16.40
2022-10-17T07:23:51.034Z,16.60
2022-10-17T07:26:19.692Z,16.50
2022-10-17T07:28:53.253Z,16.50
2022-10-17T07:31:28.487Z,16.50
2022-10-17T07:33:55.880Z,16.60
2022-10-17T07:36:23.358Z,16.70
2022-10-17T07:38:50.734Z,16.70
2022-10-17T07:41:21.755Z,17.10
2022-10-17T07:43:49.870Z,16.90
2022-10-17T07:46:20.914Z,17.00
2022-10-17T07:48:48.684Z,17.10
2022-10-17T07:51:17.664Z,17.20
2022-10-17T07:53:48.680Z,17.30
2022-10-17T07:56:16.704Z,17.50
2022-10-17T07:58:44.067Z,17.70
2022-10-17T08:01:15.468Z,17.60
2022-10-17T08:03:48.694Z,17.80
2022-10-17T08:06:16.323Z,18.00
2022-10-17T08:08:44.344Z,18.10
2022-10-17T08:11:13.574Z,18.40
2022-10-17T08:13:41.774Z,18.60
2022-10-17T08:16:11.839Z,18.90
2022-10-17T08:18:40.935Z,19.10
2022-10-17T08:21:09.483Z,19.40
2022-10-17T08:23:37.698Z,19.60
2022-10-17T08:26:10.281Z,20.00
2022-10-17T08:28:39.248Z,20.00
2022-10-17T08:31:18.999Z,20.20
2022-10-17T08:33:47.365Z,20.50
2022-10-17T08:36:17.145Z,20.70
2022-10-17T08:38:47.955Z,21.10
2022-10-17T08:41:49.393Z,21.20
2022-10-17T08:44:33.672Z,21.30
2022-10-17T08:47:06.581Z,21.50
2022-10-17T08:49:51.317Z,21.70
2022-10-17T08:52:31.651Z,21.90
2022-10-17T08:54:59.666Z,22.10
2022-10-17T08:57:28.870Z,22.40
2022-10-17T08:59:57.094Z,22.50
2022-10-17T09:02:46.727Z,22.80
2022-10-17T09:05:26.933Z,22.80
2022-10-17T09:08:13.313Z,22.90
2022-10-17T09:11:02.902Z,23.20
2022-10-17T09:13:47.236Z,23.20
2022-10-17T09:17:03.258Z,23.30
2022-10-17T09:19:52.201Z,23.50
2022-10-17T09:22:23.961Z,23.70
2022-10-17T09:25:03.740Z,23.80
2022-10-17T09:27:40.855Z,23.90
2022-10-17T09:30:45.242Z,24.40
2022-10-17T09:33:35.280Z,24.20
2022-10-17T09:36:25.686Z,24.40
2022-10-17T09:39:01.728Z,24.60
2022-10-17T09:41:45.246Z,25.00
2022-10-17T09:44:16.786Z,25.00
2022-10-17T09:46:57.078Z,25.10
2022-10-17T09:49:33.006Z,25.30
2022-10-17T09:52:05.811Z,25.40
2022-10-17T09:54:47.698Z,25.30
2022-10-17T09:57:17.684Z,25.60
2022-10-17T09:59:57.293Z,25.70
2022-10-17T10:02:26.461Z,25.70
2022-10-17T10:05:06.897Z,25.70
2022-10-17T10:07:38.622Z,25.60
2022-10-17T10:10:22.581Z,25.80
2022-10-17T10:13:14.747Z,25.60
2022-10-17T10:15:44.305Z,25.60
2022-10-17T10:18:26.998Z,25.90
2022-10-17T10:21:10.629Z,25.90
2022-10-17T10:23:40.672Z,25.50
2022-10-17T10:26:26.957Z,25.50
2022-10-17T10:29:05.590Z,25.50
2022-10-17T10:31:36.786Z,25.50
2022-10-17T10:34:16.421Z,25.50
2022-10-17T10:36:46.615Z,25.40
2022-10-17T10:39:33.765Z,25.50
2022-10-17T10:42:04.261Z,25.30
2022-10-17T10:44:33.892Z,25.30
2022-10-17T10:47:14.446Z,25.30
2022-10-17T10:49:42.265Z,25.50
2022-10-17T10:52:18.265Z,25.30
2022-10-17T10:55:03.008Z,25.50
2022-10-17T10:57:35.085Z,25.50
2022-10-17T11:00:15.572Z,25.30
2022-10-17T11:03:12.937Z,25.30
2022-10-17T11:06:12.077Z,25.30
2022-10-17T11:08:45.655Z,25.30
2022-10-17T11:11:28.434Z,25.40
2022-10-17T11:14:04.744Z,25.30
2022-10-17T11:16:32.058Z,25.50
2022-10-17T11:19:28.174Z,25.60
2022-10-17T11:22:32.174Z,25.40
2022-10-17T11:25:08.278Z,25.40
2022-10-17T11:27:35.713Z,25.50
2022-10-17T11:30:04.430Z,25.70
2022-10-17T11:32:44.341Z,25.50
2022-10-17T11:35:28.617Z,25.50
2022-10-17T11:38:18.597Z,25.60
2022-10-17T11:40:51.393Z,25.90
2022-10-17T11:43:30.887Z,25.70
2022-10-17T11:46:10.454Z,25.60
2022-10-17T11:48:44.198Z,25.60
2022-10-17T11:54:15.117Z,25.90
2022-10-17T11:56:53.827Z,25.70
2022-10-17T11:59:57.357Z,25.70
2022-10-17T12:03:02.466Z,25.70
2022-10-17T12:05:48.612Z,25.70
2022-10-17T12:08:27.982Z,25.80
2022-10-17T12:11:26.358Z,25.80
2022-10-17T12:13:56.755Z,25.90
2022-10-17T12:16:24.138Z,26.00
2022-10-17T12:19:19.302Z,26.10
2022-10-17T12:22:00.387Z,25.90
2022-10-17T12:24:37.831Z,25.90
2022-10-17T12:27:36.208Z,25.90
2022-10-17T12:30:18.031Z,25.80
2022-10-17T12:33:07.562Z,25.90
2022-10-17T12:35:38.300Z,25.90
2022-10-17T12:38:18.633Z,26.00
2022-10-17T12:40:50.853Z,26.00
2022-10-17T12:43:18.266Z,26.20
2022-10-17T12:45:51.456Z,26.20
2022-10-17T12:48:34.097Z,26.00
2022-10-17T12:51:30.866Z,26.00
2022-10-17T12:54:12.584Z,26.00
2022-10-17T12:56:44.224Z,26.00
2022-10-17T12:59:19.904Z,26.00
2022-10-17T13:01:51.876Z,26.00
2022-10-17T13:04:21.488Z,26.10
2022-10-17T13:06:54.237Z,26.40
2022-10-17T13:09:35.284Z,26.00
2022-10-17T13:12:06.284Z,26.10
2022-10-17T13:14:34.408Z,26.10
2022-10-17T13:17:05.184Z,26.10
2022-10-17T13:19:42.938Z,26.10
2022-10-17T13:22:15.411Z,26.20
2022-10-17T13:24:42.905Z,26.40
2022-10-17T13:27:22.320Z,26.40
2022-10-17T13:29:49.638Z,26.50
2022-10-17T13:32:17.206Z,26.30
2022-10-17T13:34:44.556Z,26.40
2022-10-17T13:37:15.516Z,26.50
2022-10-17T13:39:55.312Z,26.40
2022-10-17T13:42:36.873Z,26.50
2022-10-17T13:45:10.278Z,26.40
2022-10-17T13:47:39.504Z,26.50
2022-10-17T13:50:26.406Z,26.70
2022-10-17T13:53:43.773Z,26.60
2022-10-17T13:56:28.290Z,26.50
2022-10-17T13:59:06.847Z,26.80
2022-10-17T14:01:34.511Z,26.60
2022-10-17T14:04:09.308Z,26.60
2022-10-17T14:06:46.209Z,26.60
2022-10-17T14:09:23.438Z,26.70
2022-10-17T14:12:06.487Z,26.60
2022-10-17T14:14:51.647Z,26.50
2022-10-17T14:17:23.713Z,26.50
2022-10-17T14:23:17.555Z,26.70
2022-10-17T14:25:40.757Z,26.50
2022-10-17T14:28:09.522Z,26.60
2022-10-17T14:30:57.138Z,26.50
2022-10-17T14:33:30.089Z,26.70
2022-10-17T14:36:00.232Z,26.70
2022-10-17T14:38:29.668Z,26.60
2022-10-17T14:41:30.300Z,26.60
2022-10-17T14:44:06.265Z,26.40
2022-10-17T14:46:37.838Z,26.70
2022-10-17T14:49:24.345Z,26.50
2022-10-17T14:52:18.808Z,26.50
2022-10-17T14:54:49.571Z,26.40
2022-10-17T14:57:23.465Z,26.50
2022-10-17T14:59:55.352Z,26.50
2022-10-17T15:02:29.570Z,26.50
2022-10-17T15:04:57.381Z,26.70
2022-10-17T15:07:24.852Z,26.50
2022-10-17T15:09:53.865Z,26.80
2022-10-17T15:12:25.501Z,26.70
2022-10-17T15:15:01.521Z,26.50
2022-10-17T15:17:31.256Z,26.70
2022-10-17T15:19:59.035Z,26.50
2022-10-17T15:22:26.482Z,26.70
2022-10-17T15:24:54.032Z,26.60
2022-10-17T15:27:23.965Z,26.50
2022-10-17T15:29:52.795Z,26.80
2022-10-17T15:32:20.255Z,26.60
2022-10-17T15:34:47.698Z,26.80
2022-10-17T15:37:24.207Z,26.60
2022-10-17T15:39:55.851Z,26.50
2022-10-17T15:42:28.192Z,26.60
2022-10-17T15:44:57.212Z,26.70
2022-10-17T15:47:28.670Z,26.50
2022-10-17T15:49:57.223Z,26.50
2022-10-17T15:52:25.519Z,26.70
2022-10-17T15:54:53.921Z,26.70
2022-10-17T15:57:24.339Z,26.70
2022-10-17T15:59:54.606Z,26.60
2022-10-17T16:02:23.808Z,26.40
2022-10-17T16:04:51.917Z,26.40
2022-10-17T16:07:20.186Z,26.30
2022-10-17T16:09:49.802Z,26.50
2022-10-17T16:14:49.432Z,26.30
2022-10-17T16:17:17.058Z,26.20
2022-10-17T16:19:45.453Z,26.40
2022-10-17T16:22:33.437Z,26.10
2022-10-17T16:25:07.861Z,26.10
2022-10-17T16:27:37.358Z,26.00
2022-10-17T16:30:07.436Z,26.00
2022-10-17T16:32:35.439Z,25.90
2022-10-17T16:35:05.298Z,26.10
2022-10-17T16:37:35.770Z,25.80
2022-10-17T16:40:29.026Z,25.90
2022-10-17T16:42:56.590Z,25.70
2022-10-17T16:45:23.958Z,25.90
2022-10-17T16:47:53.211Z,25.70
2022-10-17T16:50:21.101Z,25.70
2022-10-17T16:52:48.550Z,25.70
2022-10-17T16:55:20.868Z,25.50
2022-10-17T16:57:50.398Z,25.50
2022-10-17T17:00:18.175Z,25.50
2022-10-17T17:02:48.046Z,25.30
2022-10-17T17:05:15.833Z,25.30
2022-10-17T17:07:43.232Z,25.30
2022-10-17T17:10:11.778Z,25.40
2022-10-17T17:12:39.135Z,25.10
2022-10-17T17:15:06.859Z,25.10
2022-10-17T17:17:49.635Z,25.00
2022-10-17T17:20:20.168Z,25.10
2022-10-17T17:22:48.588Z,25.00
2022-10-17T17:25:16.064Z,24.90
2022-10-17T17:27:43.483Z,24.70
2022-10-17T17:30:11.496Z,24.60
2022-10-17T17:32:39.667Z,24.60
2022-10-17T17:35:07.497Z,24.70
2022-10-17T17:37:35.130Z,24.50
2022-10-17T18:21:27.178Z,24.00
2022-10-17T18:23:54.666Z,24.00
2022-10-17T18:26:21.984Z,23.90
2022-10-17T18:28:50.229Z,24.20
2022-10-17T18:31:24.364Z,23.90
2022-10-17T18:33:53.010Z,23.80
2022-10-17T18:36:23.635Z,23.80
2022-10-17T18:38:51.018Z,24.00
2022-10-17T18:41:21.951Z,24.00
2022-10-17T18:43:50.461Z,23.90
2022-10-17T18:46:20.783Z,24.00
2022-10-17T18:48:54.586Z,23.70
2022-10-17T18:51:24.267Z,23.70
2022-10-17T18:53:54.251Z,23.70
2022-10-17T18:56:23.808Z,23.90
2022-10-17T18:58:52.555Z,23.70
2022-10-17T19:01:22.231Z,23.70
2022-10-17T19:03:51.295Z,23.70
2022-10-17T19:06:21.471Z,23.70
2022-10-17T19:08:49.403Z,23.60
2022-10-17T19:11:19.519Z,23.60
2022-10-17T19:13:47.709Z,23.60
2022-10-17T19:16:24.936Z,23.60
2022-10-17T19:18:54.794Z,23.60
2022-10-17T19:21:22.794Z,23.80
2022-10-17T19:23:52.273Z,23.50
2022-10-17T19:26:20.690Z,23.50
2022-10-17T19:28:48.819Z,23.50
2022-10-17T19:31:17.956Z,23.50
2022-10-17T19:33:45.999Z,23.50
2022-10-17T19:36:13.916Z,23.50
2022-10-17T19:38:41.281Z,23.50
2022-10-17T19:41:11.157Z,23.60
2022-10-17T19:43:39.906Z,23.50
2022-10-17T19:46:16.881Z,23.50
2022-10-17T19:48:44.973Z,23.70
2022-10-17T19:51:14.768Z,23.10
2022-10-17T19:53:43.945Z,23.30
2022-10-17T19:56:11.611Z,23.30
2022-10-17T19:58:46.450Z,23.20
2022-10-17T20:01:27.416Z,23.30
2022-10-17T20:03:56.230Z,23.40
2022-10-17T20:06:24.606Z,23.40
2022-10-17T20:08:55.530Z,22.90
2022-10-17T20:11:26.206Z,23.10
2022-10-17T20:13:54.623Z,23.30
2022-10-17T20:16:31.248Z,23.40
2022-10-17T20:19:07.415Z,23.20
2022-10-17T20:21:38.072Z,23.10
2022-10-17T20:24:09.173Z,23.40
2022-10-17T20:26:42.930Z,23.00
2022-10-17T20:29:18.735Z,23.20
2022-10-17T20:31:47.202Z,23.00
2022-10-17T20:34:17.264Z,22.90
2022-10-17T20:36:44.998Z,22.90
2022-10-17T20:39:14.638Z,23.00
2022-10-17T20:41:42.693Z,23.00
2022-10-17T20:44:10.909Z,22.80
2022-10-17T20:46:44.685Z,22.90
2022-10-17T20:49:18.460Z,22.70
2022-10-17T20:51:46.784Z,22.90
2022-10-17T20:54:14.209Z,22.70
2022-10-17T20:56:45.101Z,22.70
2022-10-17T20:59:14.761Z,23.00
2022-10-17T21:01:42.814Z,22.70
2022-10-17T21:04:40.669Z,22.80
2022-10-17T21:06:57.741Z,22.80
2022-10-17T21:09:25.694Z,22.70
2022-10-17T21:11:55.549Z,22.80
2022-10-17T21:14:24.933Z,22.70
2022-10-17T21:16:52.744Z,22.60
2022-10-17T21:19:21.653Z,22.60
2022-10-17T21:21:49.731Z,22.60
2022-10-17T21:24:19.254Z,22.60
2022-10-17T21:26:55.673Z,22.60
2022-10-17T21:29:23.802Z,22.70
2022-10-17T21:31:51.231Z,22.50
2022-10-17T21:34:23.697Z,22.70
2022-10-17T21:36:51.323Z,22.80
2022-10-17T21:39:19.351Z,22.70
2022-10-17T21:41:46.711Z,22.70
2022-10-17T21:44:17.870Z,22.50
2022-10-17T21:46:46.055Z,22.80
2022-10-17T21:49:15.532Z,22.50
2022-10-17T21:51:44.068Z,22.70
2022-10-17T21:54:11.939Z,22.50
2022-10-17T21:56:39.573Z,22.70
2022-10-17T21:59:07.265Z,22.50
2022-10-17T22:01:45.934Z,22.50
2022-10-17T22:04:18.761Z,22.90
2022-10-17T22:06:50.938Z,22.80
2022-10-17T22:09:21.251Z,22.70
2022-10-17T22:11:51.775Z,22.70
2022-10-17T22:14:20.753Z,22.70
2022-10-17T22:16:49.164Z,22.50
2022-10-17T22:19:20.407Z,22.50
2022-10-17T22:21:47.911Z,22.70
2022-10-17T22:24:17.429Z,22.50
2022-10-17T22:26:45.435Z,22.40
2022-10-17T22:29:13.031Z,22.40
2022-10-17T22:31:41.095Z,22.30
2022-10-17T22:34:11.594Z,22.30
2022-10-17T22:36:38.972Z,22.30
2022-10-17T22:39:06.895Z,22.30
2022-10-17T22:41:36.623Z,22.30
2022-10-17T22:44:04.603Z,22.20
2022-10-17T22:46:31.958Z,22.20
2022-10-17T22:48:59.358Z,22.20
2022-10-17T22:51:27.099Z,22.40
2022-10-17T22:53:54.396Z,22.20
2022-10-17T22:56:22.739Z,22.20
2022-10-17T22:58:50.472Z,22.50
2022-10-17T23:01:22.215Z,22.20
2022-10-17T23:03:50.669Z,22.50
2022-10-17T23:06:18.657Z,22.30
2022-10-17T23:08:45.988Z,22.20
2022-10-17T23:11:13.769Z,22.40
2022-10-17T23:13:41.242Z,22.20
2022-10-17T23:16:09.272Z,22.10
2022-10-17T23:18:38.111Z,22.30
2022-10-17T23:21:06.506Z,22.10
2022-10-17T23:23:34.361Z,22.10
2022-10-17T23:26:07.042Z,22.10
2022-10-17T23:28:35.623Z,22.10
2022-10-17T23:31:20.246Z,22.10
2022-10-17T23:33:49.853Z,22.00
2022-10-17T23:36:19.554Z,22.10
2022-10-17T23:38:48.811Z,22.40
2022-10-17T23:41:16.946Z,22.10
2022-10-17T23:43:44.457Z,22.10
2022-10-17T23:46:11.831Z,22.20
2022-10-17T23:48:40.200Z,22.10
2022-10-17T23:51:08.888Z,22.10
2022-10-17T23:53:37.486Z,22.20
2022-10-17T23:56:06.196Z,22.20
2022-10-17T23:58:34.178Z,22.00
